sensor_id;sensor_type;location;lat;lon;timestamp;temperature;humidity
49242;DHT22;35079;52.704;13.814;2024-03-25T00:01:55;5.80;99.90
49242;DHT22;35079;52.704;13.814;2024-03-25T00:04:21;5.70;99.90
49242;DHT22;35079;52.704;13.814;2024-03-25T00:06:48;5.70;99.90
49242;DHT22;35079;52.704;13.814;2024-03-25T00:09:14;5.70;99.90
49242;DHT22;35079;52.704;13.814;2024-03-25T00:11:41;5.70;99.90
49242;DHT22;35079;52.704;13.814;2024-03-25T00:14:07;5.80;99.90
49242;DHT22;35079;52.704;13.814;2024-03-25T00:16:33;5.80;99.90
49242;DHT22;35079;52.704;13.814;2024-03-25T00:18:59;5.70;99.90
49242;DHT22;35079;52.704;13.814;2024-03-25T00:21:24;5.80;99.90
49242;DHT22;35079;52.704;13.814;2024-03-25T00:23:50;5.80;99.90
49242;DHT22;35079;52.704;13.814;2024-03-25T00:26:15;5.80;99.90
49242;DHT22;35079;52.704;13.814;2024-03-25T00:28:41;5.70;99.90
49242;DHT22;35079;52.704;13.814;2024-03-25T00:31:07;5.80;99.90
49242;DHT22;35079;52.704;13.814;2024-03-25T00:33:32;5.70;99.90
49242;DHT22;35079;52.704;13.814;2024-03-25T00:35:59;5.70;99.90
49242;DHT22;35079;52.704;13.814;2024-03-25T00:38:24;5.70;99.90
49242;DHT22;35079;52.704;13.814;2024-03-25T00:40:50;5.70;99.90
49242;DHT22;35079;52.704;13.814;2024-03-25T00:43:16;5.60;99.90
49242;DHT22;35079;52.704;13.814;2024-03-25T00:45:43;5.60;99.90
49242;DHT22;35079;52.704;13.814;2024-03-25T00:48:08;5.60;99.90
49242;DHT22;35079;52.704;13.814;2024-03-25T00:50:34;5.60;99.90
49242;DHT22;35079;52.704;13.814;2024-03-25T00:53:00;5.60;99.90
49242;DHT22;35079;52.704;13.814;2024-03-25T00:55:25;5.60;99.90
49242;DHT22;35079;52.704;13.814;2024-03-25T00:57:51;5.60;99.90
49242;DHT22;35079;52.704;13.814;2024-03-25T01:00:17;5.60;99.90
49242;DHT22;35079;52.704;13.814;2024-03-25T01:02:43;5.60;99.90
49242;DHT22;35079;52.704;13.814;2024-03-25T01:05:09;5.50;99.90
49242;DHT22;35079;52.704;13.814;2024-03-25T01:07:35;5.60;99.90
49242;DHT22;35079;52.704;13.814;2024-03-25T01:10:01;5.50;99.90
49242;DHT22;35079;52.704;13.814;2024-03-25T01:12:27;5.50;99.90
49242;DHT22;35079;52.704;13.814;2024-03-25T01:14:53;5.40;99.90
49242;DHT22;35079;52.704;13.814;2024-03-25T01:17:19;5.40;99.90
49242;DHT22;35079;52.704;13.814;2024-03-25T01:19:45;5.40;99.90
49242;DHT22;35079;52.704;13.814;2024-03-25T01:22:10;5.40;99.90
49242;DHT22;35079;52.704;13.814;2024-03-25T01:24:36;5.40;99.90
49242;DHT22;35079;52.704;13.814;2024-03-25T01:27:02;5.40;99.90
49242;DHT22;35079;52.704;13.814;2024-03-25T01:29:28;5.50;99.90
49242;DHT22;35079;52.704;13.814;2024-03-25T01:31:53;5.40;99.90
49242;DHT22;35079;52.704;13.814;2024-03-25T01:34:19;5.50;99.90
49242;DHT22;35079;52.704;13.814;2024-03-25T01:36:45;5.50;99.90
49242;DHT22;35079;52.704;13.814;2024-03-25T01:39:10;5.50;99.90
49242;DHT22;35079;52.704;13.814;2024-03-25T01:41:36;5.50;99.90
49242;DHT22;35079;52.704;13.814;2024-03-25T01:44:02;5.50;99.90
49242;DHT22;35079;52.704;13.814;2024-03-25T01:46:27;5.50;99.90
49242;DHT22;35079;52.704;13.814;2024-03-25T01:48:53;5.50;99.90
49242;DHT22;35079;52.704;13.814;2024-03-25T01:51:21;5.60;99.90
49242;DHT22;35079;52.704;13.814;2024-03-25T01:53:49;5.60;99.90
49242;DHT22;35079;52.704;13.814;2024-03-25T01:56:15;5.60;99.90
49242;DHT22;35079;52.704;13.814;2024-03-25T01:58:42;5.60;99.90
49242;DHT22;35079;52.704;13.814;2024-03-25T02:01:08;5.60;99.90
49242;DHT22;35079;52.704;13.814;2024-03-25T02:03:37;5.60;99.90
49242;DHT22;35079;52.704;13.814;2024-03-25T02:06:07;5.60;99.90
49242;DHT22;35079;52.704;13.814;2024-03-25T02:08:35;5.50;99.90
49242;DHT22;35079;52.704;13.814;2024-03-25T02:11:01;5.50;99.90
49242;DHT22;35079;52.704;13.814;2024-03-25T02:13:27;5.60;99.90
49242;DHT22;35079;52.704;13.814;2024-03-25T02:15:53;5.60;99.90
49242;DHT22;35079;52.704;13.814;2024-03-25T02:18:20;5.50;99.90
49242;DHT22;35079;52.704;13.814;2024-03-25T02:20:46;5.50;99.90
49242;DHT22;35079;52.704;13.814;2024-03-25T02:23:13;5.60;99.90
49242;DHT22;35079;52.704;13.814;2024-03-25T02:25:41;5.50;99.90
49242;DHT22;35079;52.704;13.814;2024-03-25T02:28:08;5.50;99.90
49242;DHT22;35079;52.704;13.814;2024-03-25T02:30:33;5.50;99.90
49242;DHT22;35079;52.704;13.814;2024-03-25T02:32:59;5.50;99.90
49242;DHT22;35079;52.704;13.814;2024-03-25T02:35:26;5.60;99.90
49242;DHT22;35079;52.704;13.814;2024-03-25T02:37:53;5.50;99.90
49242;DHT22;35079;52.704;13.814;2024-03-25T02:40:19;5.50;99.90
49242;DHT22;35079;52.704;13.814;2024-03-25T02:42:46;5.60;99.90
49242;DHT22;35079;52.704;13.814;2024-03-25T02:45:12;5.60;99.90
49242;DHT22;35079;52.704;13.814;2024-03-25T02:47:37;5.50;99.90
49242;DHT22;35079;52.704;13.814;2024-03-25T02:50:03;5.50;99.90
49242;DHT22;35079;52.704;13.814;2024-03-25T02:52:29;5.60;99.90
49242;DHT22;35079;52.704;13.814;2024-03-25T02:54:57;5.50;99.90
49242;DHT22;35079;52.704;13.814;2024-03-25T02:57:23;5.50;99.90
49242;DHT22;35079;52.704;13.814;2024-03-25T02:59:49;5.50;99.90
49242;DHT22;35079;52.704;13.814;2024-03-25T03:02:14;5.60;99.90
49242;DHT22;35079;52.704;13.814;2024-03-25T03:04:40;5.50;99.90
49242;DHT22;35079;52.704;13.814;2024-03-25T03:07:06;5.50;99.90
49242;DHT22;35079;52.704;13.814;2024-03-25T03:09:31;5.60;99.90
49242;DHT22;35079;52.704;13.814;2024-03-25T03:11:57;5.60;99.90
49242;DHT22;35079;52.704;13.814;2024-03-25T03:14:22;5.50;99.90
49242;DHT22;35079;52.704;13.814;2024-03-25T03:16:48;5.60;99.90
49242;DHT22;35079;52.704;13.814;2024-03-25T03:19:14;5.50;99.90
49242;DHT22;35079;52.704;13.814;2024-03-25T03:21:40;5.50;99.90
49242;DHT22;35079;52.704;13.814;2024-03-25T03:24:06;5.50;99.90
49242;DHT22;35079;52.704;13.814;2024-03-25T03:26:31;5.50;99.90
49242;DHT22;35079;52.704;13.814;2024-03-25T03:28:57;5.50;99.90
49242;DHT22;35079;52.704;13.814;2024-03-25T03:31:23;5.50;99.90
49242;DHT22;35079;52.704;13.814;2024-03-25T03:33:49;5.50;99.90
49242;DHT22;35079;52.704;13.814;2024-03-25T03:36:17;5.50;99.90
49242;DHT22;35079;52.704;13.814;2024-03-25T03:38:42;5.50;99.90
49242;DHT22;35079;52.704;13.814;2024-03-25T03:41:08;5.50;99.90
49242;DHT22;35079;52.704;13.814;2024-03-25T03:43:34;5.60;99.90
49242;DHT22;35079;52.704;13.814;2024-03-25T03:45:59;5.50;99.90
49242;DHT22;35079;52.704;13.814;2024-03-25T03:48:25;5.50;99.90
49242;DHT22;35079;52.704;13.814;2024-03-25T03:50:51;5.50;99.90
49242;DHT22;35079;52.704;13.814;2024-03-25T03:53:18;5.50;99.90
49242;DHT22;35079;52.704;13.814;2024-03-25T03:55:56;5.60;99.90
49242;DHT22;35079;52.704;13.814;2024-03-25T03:58:22;5.50;99.90
49242;DHT22;35079;52.704;13.814;2024-03-25T04:00:48;5.60;99.90
49242;DHT22;35079;52.704;13.814;2024-03-25T04:03:14;5.60;99.90
49242;DHT22;35079;52.704;13.814;2024-03-25T04:05:40;5.70;99.90
49242;DHT22;35079;52.704;13.814;2024-03-25T04:08:06;5.60;99.90
49242;DHT22;35079;52.704;13.814;2024-03-25T04:10:32;5.50;99.90
49242;DHT22;35079;52.704;13.814;2024-03-25T04:12:57;5.50;99.90
49242;DHT22;35079;52.704;13.814;2024-03-25T04:15:23;5.60;99.90
49242;DHT22;35079;52.704;13.814;2024-03-25T04:17:49;5.60;99.90
49242;DHT22;35079;52.704;13.814;2024-03-25T04:20:15;5.60;99.90
49242;DHT22;35079;52.704;13.814;2024-03-25T04:22:41;5.60;99.90
49242;DHT22;35079;52.704;13.814;2024-03-25T04:25:08;5.60;99.90
49242;DHT22;35079;52.704;13.814;2024-03-25T04:27:39;5.60;99.90
49242;DHT22;35079;52.704;13.814;2024-03-25T04:30:06;5.60;99.90
49242;DHT22;35079;52.704;13.814;2024-03-25T04:32:33;5.60;99.90
49242;DHT22;35079;52.704;13.814;2024-03-25T04:34:59;5.60;99.90
49242;DHT22;35079;52.704;13.814;2024-03-25T04:37:25;5.60;99.90
49242;DHT22;35079;52.704;13.814;2024-03-25T04:39:50;5.60;99.90
49242;DHT22;35079;52.704;13.814;2024-03-25T04:42:16;5.60;99.90
49242;DHT22;35079;52.704;13.814;2024-03-25T04:44:41;5.50;99.90
49242;DHT22;35079;52.704;13.814;2024-03-25T04:47:07;5.60;99.90
49242;DHT22;35079;52.704;13.814;2024-03-25T04:49:33;5.60;99.90
49242;DHT22;35079;52.704;13.814;2024-03-25T04:51:58;5.60;99.90
49242;DHT22;35079;52.704;13.814;2024-03-25T04:54:24;5.70;99.90
49242;DHT22;35079;52.704;13.814;2024-03-25T04:56:49;5.70;99.90
49242;DHT22;35079;52.704;13.814;2024-03-25T04:59:15;5.70;99.90
49242;DHT22;35079;52.704;13.814;2024-03-25T05:01:41;5.60;99.90
49242;DHT22;35079;52.704;13.814;2024-03-25T05:04:06;5.60;99.90
49242;DHT22;35079;52.704;13.814;2024-03-25T05:06:35;5.60;99.90
49242;DHT22;35079;52.704;13.814;2024-03-25T05:09:01;5.60;99.90
49242;DHT22;35079;52.704;13.814;2024-03-25T05:11:26;5.70;99.90
49242;DHT22;35079;52.704;13.814;2024-03-25T05:13:52;5.60;99.90
49242;DHT22;35079;52.704;13.814;2024-03-25T05:16:18;5.60;99.90
49242;DHT22;35079;52.704;13.814;2024-03-25T05:18:43;5.60;99.90
49242;DHT22;35079;52.704;13.814;2024-03-25T05:21:09;5.60;99.90
49242;DHT22;35079;52.704;13.814;2024-03-25T05:23:35;5.70;99.90
49242;DHT22;35079;52.704;13.814;2024-03-25T05:26:00;5.70;99.90
49242;DHT22;35079;52.704;13.814;2024-03-25T05:28:26;5.70;99.90
49242;DHT22;35079;52.704;13.814;2024-03-25T05:30:52;5.60;99.90
49242;DHT22;35079;52.704;13.814;2024-03-25T05:33:17;5.70;99.90
49242;DHT22;35079;52.704;13.814;2024-03-25T05:35:43;5.60;99.90
49242;DHT22;35079;52.704;13.814;2024-03-25T05:38:08;5.70;99.90
49242;DHT22;35079;52.704;13.814;2024-03-25T05:40:37;5.70;99.90
49242;DHT22;35079;52.704;13.814;2024-03-25T05:43:03;5.70;99.90
49242;DHT22;35079;52.704;13.814;2024-03-25T05:45:30;5.60;99.90
49242;DHT22;35079;52.704;13.814;2024-03-25T05:47:55;5.60;99.90
49242;DHT22;35079;52.704;13.814;2024-03-25T05:50:21;5.60;99.90
49242;DHT22;35079;52.704;13.814;2024-03-25T05:52:46;5.80;99.90
49242;DHT22;35079;52.704;13.814;2024-03-25T05:55:12;5.70;99.90
49242;DHT22;35079;52.704;13.814;2024-03-25T05:57:38;5.70;99.90
49242;DHT22;35079;52.704;13.814;2024-03-25T06:00:04;5.70;99.90
49242;DHT22;35079;52.704;13.814;2024-03-25T06:02:29;5.70;99.90
49242;DHT22;35079;52.704;13.814;2024-03-25T06:04:57;5.80;99.90
49242;DHT22;35079;52.704;13.814;2024-03-25T06:07:23;5.80;99.90
49242;DHT22;35079;52.704;13.814;2024-03-25T06:09:49;5.80;99.90
49242;DHT22;35079;52.704;13.814;2024-03-25T06:12:14;5.80;99.90
49242;DHT22;35079;52.704;13.814;2024-03-25T06:14:40;5.90;99.90
49242;DHT22;35079;52.704;13.814;2024-03-25T06:17:05;5.90;99.90
49242;DHT22;35079;52.704;13.814;2024-03-25T06:19:31;5.80;99.90
49242;DHT22;35079;52.704;13.814;2024-03-25T06:21:57;5.90;99.90
49242;DHT22;35079;52.704;13.814;2024-03-25T06:24:22;5.90;99.90
49242;DHT22;35079;52.704;13.814;2024-03-25T06:26:49;5.90;99.90
49242;DHT22;35079;52.704;13.814;2024-03-25T06:29:14;5.80;99.90
49242;DHT22;35079;52.704;13.814;2024-03-25T06:31:40;5.90;99.90
49242;DHT22;35079;52.704;13.814;2024-03-25T06:34:32;5.80;99.90
49242;DHT22;35079;52.704;13.814;2024-03-25T06:36:57;5.80;99.90
49242;DHT22;35079;52.704;13.814;2024-03-25T06:39:23;5.80;99.90
49242;DHT22;35079;52.704;13.814;2024-03-25T06:41:49;5.90;99.90
49242;DHT22;35079;52.704;13.814;2024-03-25T06:44:14;5.90;99.90
49242;DHT22;35079;52.704;13.814;2024-03-25T06:46:40;6.00;99.90
49242;DHT22;35079;52.704;13.814;2024-03-25T06:49:06;6.00;99.90
49242;DHT22;35079;52.704;13.814;2024-03-25T06:51:31;6.00;99.90
49242;DHT22;35079;52.704;13.814;2024-03-25T06:53:57;6.00;99.90
49242;DHT22;35079;52.704;13.814;2024-03-25T06:56:24;6.00;99.90
49242;DHT22;35079;52.704;13.814;2024-03-25T06:58:50;6.00;99.90
49242;DHT22;35079;52.704;13.814;2024-03-25T07:01:17;5.90;99.90
49242;DHT22;35079;52.704;13.814;2024-03-25T07:03:42;5.90;99.90
49242;DHT22;35079;52.704;13.814;2024-03-25T07:06:11;5.90;99.90
49242;DHT22;35079;52.704;13.814;2024-03-25T07:08:40;5.80;99.90
49242;DHT22;35079;52.704;13.814;2024-03-25T07:11:06;5.90;99.90
49242;DHT22;35079;52.704;13.814;2024-03-25T07:13:31;5.80;99.90
49242;DHT22;35079;52.704;13.814;2024-03-25T07:15:57;5.90;99.90
49242;DHT22;35079;52.704;13.814;2024-03-25T07:18:23;5.90;99.90
49242;DHT22;35079;52.704;13.814;2024-03-25T07:20:48;6.10;99.90
49242;DHT22;35079;52.704;13.814;2024-03-25T07:23:14;6.20;99.90
49242;DHT22;35079;52.704;13.814;2024-03-25T07:25:39;6.30;99.90
49242;DHT22;35079;52.704;13.814;2024-03-25T07:28:05;6.40;99.90
49242;DHT22;35079;52.704;13.814;2024-03-25T07:30:31;6.40;99.90
49242;DHT22;35079;52.704;13.814;2024-03-25T07:32:58;6.50;99.90
49242;DHT22;35079;52.704;13.814;2024-03-25T07:35:24;6.50;99.90
49242;DHT22;35079;52.704;13.814;2024-03-25T07:37:50;6.50;99.90
49242;DHT22;35079;52.704;13.814;2024-03-25T07:40:20;6.50;99.90
49242;DHT22;35079;52.704;13.814;2024-03-25T07:42:46;6.40;99.90
49242;DHT22;35079;52.704;13.814;2024-03-25T07:45:12;6.50;99.90
49242;DHT22;35079;52.704;13.814;2024-03-25T07:47:38;6.50;99.90
49242;DHT22;35079;52.704;13.814;2024-03-25T07:50:04;6.50;99.90
49242;DHT22;35079;52.704;13.814;2024-03-25T07:52:31;6.30;99.90
49242;DHT22;35079;52.704;13.814;2024-03-25T07:54:57;6.30;99.90
49242;DHT22;35079;52.704;13.814;2024-03-25T07:57:22;6.40;99.90
49242;DHT22;35079;52.704;13.814;2024-03-25T07:59:48;6.30;99.90
49242;DHT22;35079;52.704;13.814;2024-03-25T08:02:15;6.40;99.90
49242;DHT22;35079;52.704;13.814;2024-03-25T08:04:40;6.30;99.90
49242;DHT22;35079;52.704;13.814;2024-03-25T08:07:06;6.30;99.90
49242;DHT22;35079;52.704;13.814;2024-03-25T08:09:32;6.30;99.90
49242;DHT22;35079;52.704;13.814;2024-03-25T08:11:58;6.20;99.90
49242;DHT22;35079;52.704;13.814;2024-03-25T08:14:24;6.30;99.90
49242;DHT22;35079;52.704;13.814;2024-03-25T08:16:49;6.20;99.90
49242;DHT22;35079;52.704;13.814;2024-03-25T08:19:15;6.20;99.90
49242;DHT22;35079;52.704;13.814;2024-03-25T08:21:41;6.10;99.90
49242;DHT22;35079;52.704;13.814;2024-03-25T08:24:06;6.20;99.90
49242;DHT22;35079;52.704;13.814;2024-03-25T08:26:32;6.20;99.90
49242;DHT22;35079;52.704;13.814;2024-03-25T08:28:58;6.40;99.90
49242;DHT22;35079;52.704;13.814;2024-03-25T08:31:23;6.50;99.90
49242;DHT22;35079;52.704;13.814;2024-03-25T08:33:49;6.70;99.90
49242;DHT22;35079;52.704;13.814;2024-03-25T08:36:15;6.70;99.90
49242;DHT22;35079;52.704;13.814;2024-03-25T08:38:41;6.90;99.90
49242;DHT22;35079;52.704;13.814;2024-03-25T08:41:07;6.90;99.90
49242;DHT22;35079;52.704;13.814;2024-03-25T08:43:32;7.00;99.90
49242;DHT22;35079;52.704;13.814;2024-03-25T08:45:58;7.00;99.90
49242;DHT22;35079;52.704;13.814;2024-03-25T08:48:23;6.90;99.90
49242;DHT22;35079;52.704;13.814;2024-03-25T08:50:49;6.90;99.90
49242;DHT22;35079;52.704;13.814;2024-03-25T08:53:15;6.90;99.90
49242;DHT22;35079;52.704;13.814;2024-03-25T08:55:45;7.00;99.90
49242;DHT22;35079;52.704;13.814;2024-03-25T08:58:12;7.00;99.90
49242;DHT22;35079;52.704;13.814;2024-03-25T09:00:38;7.00;99.90
49242;DHT22;35079;52.704;13.814;2024-03-25T09:03:04;7.20;99.90
49242;DHT22;35079;52.704;13.814;2024-03-25T09:05:30;7.40;99.90
49242;DHT22;35079;52.704;13.814;2024-03-25T09:07:56;7.50;99.90
49242;DHT22;35079;52.704;13.814;2024-03-25T09:10:24;7.50;99.90
49242;DHT22;35079;52.704;13.814;2024-03-25T09:13:08;7.60;99.90
49242;DHT22;35079;52.704;13.814;2024-03-25T09:15:34;7.60;99.90
49242;DHT22;35079;52.704;13.814;2024-03-25T09:17:59;7.70;99.90
49242;DHT22;35079;52.704;13.814;2024-03-25T09:20:25;7.70;99.90
49242;DHT22;35079;52.704;13.814;2024-03-25T09:22:52;7.90;99.90
49242;DHT22;35079;52.704;13.814;2024-03-25T09:25:18;7.90;99.90
49242;DHT22;35079;52.704;13.814;2024-03-25T09:27:47;7.80;99.90
49242;DHT22;35079;52.704;13.814;2024-03-25T09:30:13;7.90;99.90
49242;DHT22;35079;52.704;13.814;2024-03-25T09:32:40;8.00;99.90
49242;DHT22;35079;52.704;13.814;2024-03-25T09:35:06;8.00;99.90
49242;DHT22;35079;52.704;13.814;2024-03-25T09:37:32;8.00;99.90
49242;DHT22;35079;52.704;13.814;2024-03-25T09:39:58;7.80;99.90
49242;DHT22;35079;52.704;13.814;2024-03-25T09:42:33;7.80;99.90
49242;DHT22;35079;52.704;13.814;2024-03-25T09:44:59;7.70;99.90
49242;DHT22;35079;52.704;13.814;2024-03-25T09:47:25;7.70;99.90
49242;DHT22;35079;52.704;13.814;2024-03-25T09:49:52;7.70;99.90
49242;DHT22;35079;52.704;13.814;2024-03-25T09:52:19;7.70;99.90
49242;DHT22;35079;52.704;13.814;2024-03-25T09:54:45;7.60;99.90
49242;DHT22;35079;52.704;13.814;2024-03-25T09:57:11;7.70;99.90
49242;DHT22;35079;52.704;13.814;2024-03-25T09:59:37;7.80;99.90
49242;DHT22;35079;52.704;13.814;2024-03-25T10:02:03;8.00;99.90
49242;DHT22;35079;52.704;13.814;2024-03-25T10:04:30;8.60;99.90
49242;DHT22;35079;52.704;13.814;2024-03-25T10:06:57;9.60;99.90
49242;DHT22;35079;52.704;13.814;2024-03-25T10:09:22;10.50;99.90
49242;DHT22;35079;52.704;13.814;2024-03-25T10:11:49;10.80;99.90
49242;DHT22;35079;52.704;13.814;2024-03-25T10:14:15;11.00;99.90
49242;DHT22;35079;52.704;13.814;2024-03-25T10:16:42;10.70;99.90
49242;DHT22;35079;52.704;13.814;2024-03-25T10:19:08;10.50;99.90
49242;DHT22;35079;52.704;13.814;2024-03-25T10:21:34;10.20;99.90
49242;DHT22;35079;52.704;13.814;2024-03-25T10:24:00;9.90;99.90
49242;DHT22;35079;52.704;13.814;2024-03-25T10:26:31;9.70;99.90
49242;DHT22;35079;52.704;13.814;2024-03-25T10:29:04;9.50;99.90
49242;DHT22;35079;52.704;13.814;2024-03-25T10:31:31;9.50;99.90
49242;DHT22;35079;52.704;13.814;2024-03-25T10:33:57;9.60;99.90
49242;DHT22;35079;52.704;13.814;2024-03-25T10:36:24;9.80;99.90
49242;DHT22;35079;52.704;13.814;2024-03-25T10:38:57;9.70;99.90
49242;DHT22;35079;52.704;13.814;2024-03-25T10:41:24;9.80;99.90
49242;DHT22;35079;52.704;13.814;2024-03-25T10:43:55;10.00;99.90
49242;DHT22;35079;52.704;13.814;2024-03-25T10:46:22;10.20;99.90
49242;DHT22;35079;52.704;13.814;2024-03-25T10:49:01;10.40;99.90
49242;DHT22;35079;52.704;13.814;2024-03-25T10:51:29;10.50;99.90
49242;DHT22;35079;52.704;13.814;2024-03-25T10:53:57;10.70;99.90
49242;DHT22;35079;52.704;13.814;2024-03-25T10:56:24;10.60;99.90
49242;DHT22;35079;52.704;13.814;2024-03-25T10:58:50;10.50;99.90
49242;DHT22;35079;52.704;13.814;2024-03-25T11:01:19;10.20;99.90
49242;DHT22;35079;52.704;13.814;2024-03-25T11:03:46;9.90;99.90
49242;DHT22;35079;52.704;13.814;2024-03-25T11:06:13;9.60;99.90
49242;DHT22;35079;52.704;13.814;2024-03-25T11:08:39;9.40;99.90
49242;DHT22;35079;52.704;13.814;2024-03-25T11:11:07;9.30;99.90
49242;DHT22;35079;52.704;13.814;2024-03-25T11:13:33;9.30;99.90
49242;DHT22;35079;52.704;13.814;2024-03-25T11:15:59;9.30;99.90
49242;DHT22;35079;52.704;13.814;2024-03-25T11:18:26;9.20;99.90
49242;DHT22;35079;52.704;13.814;2024-03-25T11:21:04;9.10;99.90
49242;DHT22;35079;52.704;13.814;2024-03-25T11:23:43;8.90;99.90
49242;DHT22;35079;52.704;13.814;2024-03-25T11:26:21;8.80;99.90
49242;DHT22;35079;52.704;13.814;2024-03-25T11:28:48;8.70;99.90
49242;DHT22;35079;52.704;13.814;2024-03-25T11:31:15;8.80;99.90
49242;DHT22;35079;52.704;13.814;2024-03-25T11:33:41;9.00;99.90
49242;DHT22;35079;52.704;13.814;2024-03-25T11:36:07;9.50;99.90
49242;DHT22;35079;52.704;13.814;2024-03-25T11:38:36;9.90;99.90
49242;DHT22;35079;52.704;13.814;2024-03-25T11:41:04;9.90;99.90
49242;DHT22;35079;52.704;13.814;2024-03-25T11:43:30;10.00;99.90
49242;DHT22;35079;52.704;13.814;2024-03-25T11:45:55;10.50;99.90
49242;DHT22;35079;52.704;13.814;2024-03-25T11:48:21;11.20;99.90
49242;DHT22;35079;52.704;13.814;2024-03-25T11:50:47;12.00;99.90
49242;DHT22;35079;52.704;13.814;2024-03-25T11:53:14;12.40;99.90
49242;DHT22;35079;52.704;13.814;2024-03-25T11:55:41;12.30;99.90
49242;DHT22;35079;52.704;13.814;2024-03-25T11:58:07;12.00;99.90
49242;DHT22;35079;52.704;13.814;2024-03-25T12:00:33;12.00;99.90
49242;DHT22;35079;52.704;13.814;2024-03-25T12:03:00;12.20;99.90
49242;DHT22;35079;52.704;13.814;2024-03-25T12:05:25;13.20;99.90
49242;DHT22;35079;52.704;13.814;2024-03-25T12:07:51;14.60;99.90
49242;DHT22;35079;52.704;13.814;2024-03-25T12:10:17;15.30;99.90
49242;DHT22;35079;52.704;13.814;2024-03-25T12:13:01;15.10;99.90
49242;DHT22;35079;52.704;13.814;2024-03-25T12:15:27;14.40;99.90
49242;DHT22;35079;52.704;13.814;2024-03-25T12:17:53;14.00;99.90
49242;DHT22;35079;52.704;13.814;2024-03-25T12:20:20;14.60;99.90
49242;DHT22;35079;52.704;13.814;2024-03-25T12:22:45;15.10;99.90
49242;DHT22;35079;52.704;13.814;2024-03-25T12:25:11;15.10;99.90
49242;DHT22;35079;52.704;13.814;2024-03-25T12:27:39;14.30;99.90
49242;DHT22;35079;52.704;13.814;2024-03-25T12:30:07;13.60;99.90
49242;DHT22;35079;52.704;13.814;2024-03-25T12:32:41;13.00;99.90
49242;DHT22;35079;52.704;13.814;2024-03-25T12:35:08;12.60;99.90
49242;DHT22;35079;52.704;13.814;2024-03-25T12:37:36;12.40;99.90
49242;DHT22;35079;52.704;13.814;2024-03-25T12:40:03;12.00;99.90
49242;DHT22;35079;52.704;13.814;2024-03-25T12:42:30;12.10;99.90
49242;DHT22;35079;52.704;13.814;2024-03-25T12:44:55;12.10;99.90
49242;DHT22;35079;52.704;13.814;2024-03-25T12:47:22;12.10;99.90
49242;DHT22;35079;52.704;13.814;2024-03-25T12:49:47;11.90;99.90
49242;DHT22;35079;52.704;13.814;2024-03-25T12:52:13;11.80;99.90
49242;DHT22;35079;52.704;13.814;2024-03-25T12:54:38;11.70;99.90
49242;DHT22;35079;52.704;13.814;2024-03-25T12:57:05;11.60;99.90
49242;DHT22;35079;52.704;13.814;2024-03-25T12:59:31;11.60;99.90
49242;DHT22;35079;52.704;13.814;2024-03-25T13:01:56;11.50;99.90
49242;DHT22;35079;52.704;13.814;2024-03-25T13:04:22;11.40;99.90
49242;DHT22;35079;52.704;13.814;2024-03-25T13:06:48;11.30;99.90
49242;DHT22;35079;52.704;13.814;2024-03-25T13:09:13;11.20;99.90
49242;DHT22;35079;52.704;13.814;2024-03-25T13:11:39;11.10;99.90
49242;DHT22;35079;52.704;13.814;2024-03-25T13:14:05;11.20;99.90
49242;DHT22;35079;52.704;13.814;2024-03-25T13:16:33;11.30;99.90
49242;DHT22;35079;52.704;13.814;2024-03-25T13:18:59;11.20;99.90
49242;DHT22;35079;52.704;13.814;2024-03-25T13:21:25;10.80;99.90
49242;DHT22;35079;52.704;13.814;2024-03-25T13:23:52;10.50;99.90
49242;DHT22;35079;52.704;13.814;2024-03-25T13:26:17;10.30;99.90
49242;DHT22;35079;52.704;13.814;2024-03-25T13:28:43;10.00;99.90
49242;DHT22;35079;52.704;13.814;2024-03-25T13:31:09;9.80;99.90
49242;DHT22;35079;52.704;13.814;2024-03-25T13:33:35;9.50;99.90
49242;DHT22;35079;52.704;13.814;2024-03-25T13:36:02;9.40;99.90
49242;DHT22;35079;52.704;13.814;2024-03-25T13:38:28;9.30;99.90
49242;DHT22;35079;52.704;13.814;2024-03-25T13:40:54;9.30;99.90
49242;DHT22;35079;52.704;13.814;2024-03-25T13:43:19;9.50;99.90
49242;DHT22;35079;52.704;13.814;2024-03-25T13:45:49;9.50;99.90
49242;DHT22;35079;52.704;13.814;2024-03-25T13:48:15;9.50;99.90
49242;DHT22;35079;52.704;13.814;2024-03-25T13:50:41;9.70;99.90
49242;DHT22;35079;52.704;13.814;2024-03-25T13:53:07;9.70;99.90
49242;DHT22;35079;52.704;13.814;2024-03-25T13:55:33;9.70;99.90
49242;DHT22;35079;52.704;13.814;2024-03-25T13:57:59;9.60;99.90
49242;DHT22;35079;52.704;13.814;2024-03-25T14:00:24;9.40;99.90
49242;DHT22;35079;52.704;13.814;2024-03-25T14:02:52;9.30;99.90
49242;DHT22;35079;52.704;13.814;2024-03-25T14:05:18;9.00;99.90
49242;DHT22;35079;52.704;13.814;2024-03-25T14:07:44;9.00;99.90
49242;DHT22;35079;52.704;13.814;2024-03-25T14:10:09;8.80;99.90
49242;DHT22;35079;52.704;13.814;2024-03-25T14:12:37;8.70;99.90
49242;DHT22;35079;52.704;13.814;2024-03-25T14:15:03;8.60;99.90
49242;DHT22;35079;52.704;13.814;2024-03-25T14:17:28;8.60;99.90
49242;DHT22;35079;52.704;13.814;2024-03-25T14:19:56;8.60;99.90
49242;DHT22;35079;52.704;13.814;2024-03-25T14:22:22;8.70;99.90
49242;DHT22;35079;52.704;13.814;2024-03-25T14:24:48;8.70;99.90
49242;DHT22;35079;52.704;13.814;2024-03-25T14:27:17;8.80;99.90
49242;DHT22;35079;52.704;13.814;2024-03-25T14:29:43;8.90;99.90
49242;DHT22;35079;52.704;13.814;2024-03-25T14:32:12;9.00;99.90
49242;DHT22;35079;52.704;13.814;2024-03-25T14:34:37;9.20;99.90
49242;DHT22;35079;52.704;13.814;2024-03-25T14:37:03;9.20;99.90
49242;DHT22;35079;52.704;13.814;2024-03-25T14:39:29;9.40;99.90
49242;DHT22;35079;52.704;13.814;2024-03-25T14:41:55;9.50;99.90
49242;DHT22;35079;52.704;13.814;2024-03-25T14:44:20;9.80;99.90
49242;DHT22;35079;52.704;13.814;2024-03-25T14:46:46;9.90;99.90
49242;DHT22;35079;52.704;13.814;2024-03-25T14:49:12;9.90;99.90
49242;DHT22;35079;52.704;13.814;2024-03-25T14:51:38;9.90;99.90
49242;DHT22;35079;52.704;13.814;2024-03-25T14:54:03;9.90;99.90
49242;DHT22;35079;52.704;13.814;2024-03-25T14:56:29;9.90;99.90
49242;DHT22;35079;52.704;13.814;2024-03-25T14:58:55;9.90;99.90
49242;DHT22;35079;52.704;13.814;2024-03-25T15:01:21;9.90;99.90
49242;DHT22;35079;52.704;13.814;2024-03-25T15:03:47;9.80;99.90
49242;DHT22;35079;52.704;13.814;2024-03-25T15:06:13;9.60;99.90
49242;DHT22;35079;52.704;13.814;2024-03-25T15:08:39;9.50;99.90
49242;DHT22;35079;52.704;13.814;2024-03-25T15:11:05;9.40;99.90
49242;DHT22;35079;52.704;13.814;2024-03-25T15:13:31;9.30;99.90
49242;DHT22;35079;52.704;13.814;2024-03-25T15:15:57;9.20;99.90
49242;DHT22;35079;52.704;13.814;2024-03-25T15:18:23;9.20;99.90
49242;DHT22;35079;52.704;13.814;2024-03-25T15:21:02;9.10;99.90
49242;DHT22;35079;52.704;13.814;2024-03-25T15:23:28;9.00;99.90